sensor_id;sensor_type;location;lat;lon;timestamp;P1;durP1;ratioP1;P2;durP2;ratioP2
6378;SDS011;3222;48.858;10.128;2022-09-03T00:01:18;3.67;;;1.30;;
6378;SDS011;3222;48.858;10.128;2022-09-03T00:03:54;1.27;;;1.20;;
6378;SDS011;3222;48.858;10.128;2022-09-03T00:06:29;2.20;;;1.30;;
6378;SDS011;3222;48.858;10.128;2022-09-03T00:09:05;1.77;;;1.00;;
6378;SDS011;3222;48.858;10.128;2022-09-03T00:11:38;2.23;;;1.37;;
6378;SDS011;3222;48.858;10.128;2022-09-03T00:14:25;3.73;;;1.37;;
6378;SDS011;3222;48.858;10.128;2022-09-03T00:16:59;1.27;;;1.17;;
6378;SDS011;3222;48.858;10.128;2022-09-03T00:19:34;1.30;;;1.20;;
6378;SDS011;3222;48.858;10.128;2022-09-03T00:22:17;2.77;;;1.53;;
6378;SDS011;3222;48.858;10.128;2022-09-03T00:24:47;2.17;;;1.23;;
6378;SDS011;3222;48.858;10.128;2022-09-03T00:27:21;1.77;;;1.10;;
6378;SDS011;3222;48.858;10.128;2022-09-03T00:29:51;1.43;;;1.33;;
6378;SDS011;3222;48.858;10.128;2022-09-03T00:32:23;1.00;;;1.00;;
6378;SDS011;3222;48.858;10.128;2022-09-03T00:35:00;2.17;;;1.20;;
6378;SDS011;3222;48.858;10.128;2022-09-03T00:37:28;1.47;;;1.43;;
6378;SDS011;3222;48.858;10.128;2022-09-03T00:39:54;1.10;;;1.10;;
6378;SDS011;3222;48.858;10.128;2022-09-03T00:45:17;6.30;;;1.40;;
6378;SDS011;3222;48.858;10.128;2022-09-03T00:48:10;1.30;;;1.13;;
6378;SDS011;3222;48.858;10.128;2022-09-03T00:51:04;1.50;;;1.40;;
6378;SDS011;3222;48.858;10.128;2022-09-03T00:56:55;1.33;;;1.23;;
6378;SDS011;3222;48.858;10.128;2022-09-03T00:59:48;1.10;;;1.10;;
6378;SDS011;3222;48.858;10.128;2022-09-03T01:08:12;1.57;;;1.47;;
6378;SDS011;3222;48.858;10.128;2022-09-03T01:13:32;2.90;;;1.40;;
6378;SDS011;3222;48.858;10.128;2022-09-03T01:24:49;1.30;;;1.20;;
6378;SDS011;3222;48.858;10.128;2022-09-03T01:30:26;1.60;;;1.30;;
6378;SDS011;3222;48.858;10.128;2022-09-03T01:35:43;1.53;;;1.43;;
6378;SDS011;3222;48.858;10.128;2022-09-03T01:41:12;2.13;;;1.50;;
6378;SDS011;3222;48.858;10.128;2022-09-03T01:49:46;1.93;;;1.50;;
6378;SDS011;3222;48.858;10.128;2022-09-03T01:55:23;2.10;;;1.30;;
6378;SDS011;3222;48.858;10.128;2022-09-03T01:57:55;2.53;;;1.60;;
6378;SDS011;3222;48.858;10.128;2022-09-03T02:00:42;2.80;;;1.30;;
6378;SDS011;3222;48.858;10.128;2022-09-03T02:03:12;1.47;;;1.37;;
6378;SDS011;3222;48.858;10.128;2022-09-03T02:05:39;1.60;;;1.50;;
6378;SDS011;3222;48.858;10.128;2022-09-03T02:08:08;2.37;;;1.57;;
6378;SDS011;3222;48.858;10.128;2022-09-03T02:10:54;1.50;;;1.40;;
6378;SDS011;3222;48.858;10.128;2022-09-03T02:13:27;1.67;;;1.50;;
6378;SDS011;3222;48.858;10.128;2022-09-03T02:16:22;4.07;;;1.40;;
6378;SDS011;3222;48.858;10.128;2022-09-03T02:19:02;2.63;;;1.30;;
6378;SDS011;3222;48.858;10.128;2022-09-03T02:21:34;2.43;;;1.50;;
6378;SDS011;3222;48.858;10.128;2022-09-03T02:24:03;1.50;;;1.40;;
6378;SDS011;3222;48.858;10.128;2022-09-03T02:26:30;1.47;;;1.37;;
6378;SDS011;3222;48.858;10.128;2022-09-03T02:28:56;1.27;;;1.23;;
6378;SDS011;3222;48.858;10.128;2022-09-03T02:31:22;4.37;;;1.33;;
6378;SDS011;3222;48.858;10.128;2022-09-03T02:33:50;1.67;;;1.33;;
6378;SDS011;3222;48.858;10.128;2022-09-03T02:36:17;1.40;;;1.30;;
6378;SDS011;3222;48.858;10.128;2022-09-03T02:38:45;1.47;;;1.10;;
6378;SDS011;3222;48.858;10.128;2022-09-03T02:41:11;4.27;;;1.60;;
6378;SDS011;3222;48.858;10.128;2022-09-03T02:44:00;1.40;;;1.30;;
6378;SDS011;3222;48.858;10.128;2022-09-03T02:46:52;1.60;;;1.50;;
6378;SDS011;3222;48.858;10.128;2022-09-03T02:49:27;1.50;;;1.30;;
6378;SDS011;3222;48.858;10.128;2022-09-03T02:52:01;1.40;;;1.30;;
6378;SDS011;3222;48.858;10.128;2022-09-03T02:54:34;2.00;;;1.40;;
6378;SDS011;3222;48.858;10.128;2022-09-03T02:57:10;1.43;;;1.33;;
6378;SDS011;3222;48.858;10.128;2022-09-03T02:59:38;2.07;;;1.50;;
6378;SDS011;3222;48.858;10.128;2022-09-03T03:02:06;5.43;;;1.63;;
6378;SDS011;3222;48.858;10.128;2022-09-03T03:04:32;1.47;;;1.40;;
6378;SDS011;3222;48.858;10.128;2022-09-03T03:06:58;2.03;;;1.33;;
6378;SDS011;3222;48.858;10.128;2022-09-03T03:09:23;1.60;;;1.50;;
6378;SDS011;3222;48.858;10.128;2022-09-03T03:11:49;1.50;;;1.40;;
6378;SDS011;3222;48.858;10.128;2022-09-03T03:14:16;1.43;;;1.33;;
6378;SDS011;3222;48.858;10.128;2022-09-03T03:16:43;1.60;;;1.50;;
6378;SDS011;3222;48.858;10.128;2022-09-03T03:19:09;2.90;;;1.60;;
6378;SDS011;3222;48.858;10.128;2022-09-03T03:21:35;2.17;;;1.50;;
6378;SDS011;3222;48.858;10.128;2022-09-03T03:24:01;1.83;;;1.40;;
6378;SDS011;3222;48.858;10.128;2022-09-03T03:26:27;1.70;;;1.47;;
6378;SDS011;3222;48.858;10.128;2022-09-03T03:28:57;1.50;;;1.40;;
6378;SDS011;3222;48.858;10.128;2022-09-03T03:31:25;1.83;;;1.40;;
6378;SDS011;3222;48.858;10.128;2022-09-03T03:33:52;2.73;;;1.50;;
6378;SDS011;3222;48.858;10.128;2022-09-03T03:36:19;1.73;;;1.47;;
6378;SDS011;3222;48.858;10.128;2022-09-03T03:38:46;1.63;;;1.53;;
6378;SDS011;3222;48.858;10.128;2022-09-03T03:41:23;1.50;;;1.40;;
6378;SDS011;3222;48.858;10.128;2022-09-03T03:43:52;1.73;;;1.60;;
6378;SDS011;3222;48.858;10.128;2022-09-03T03:46:22;2.30;;;1.73;;
6378;SDS011;3222;48.858;10.128;2022-09-03T03:48:50;2.07;;;1.73;;
6378;SDS011;3222;48.858;10.128;2022-09-03T03:51:19;1.70;;;1.60;;
6378;SDS011;3222;48.858;10.128;2022-09-03T03:53:45;1.80;;;1.70;;
6378;SDS011;3222;48.858;10.128;2022-09-03T03:56:12;3.83;;;1.80;;
6378;SDS011;3222;48.858;10.128;2022-09-03T03:58:39;1.60;;;1.50;;
6378;SDS011;3222;48.858;10.128;2022-09-03T04:01:09;1.77;;;1.67;;
6378;SDS011;3222;48.858;10.128;2022-09-03T04:03:37;1.70;;;1.53;;
6378;SDS011;3222;48.858;10.128;2022-09-03T04:06:03;1.57;;;1.40;;
6378;SDS011;3222;48.858;10.128;2022-09-03T04:08:32;1.60;;;1.50;;
6378;SDS011;3222;48.858;10.128;2022-09-03T04:11:00;3.90;;;1.63;;
6378;SDS011;3222;48.858;10.128;2022-09-03T04:13:30;1.50;;;1.40;;
6378;SDS011;3222;48.858;10.128;2022-09-03T04:16:00;1.90;;;1.80;;
6378;SDS011;3222;48.858;10.128;2022-09-03T04:18:34;2.67;;;1.57;;
6378;SDS011;3222;48.858;10.128;2022-09-03T04:21:01;1.50;;;1.40;;
6378;SDS011;3222;48.858;10.128;2022-09-03T04:23:30;2.27;;;1.73;;
6378;SDS011;3222;48.858;10.128;2022-09-03T04:25:56;1.70;;;1.60;;
6378;SDS011;3222;48.858;10.128;2022-09-03T04:28:22;1.43;;;1.33;;
6378;SDS011;3222;48.858;10.128;2022-09-03T04:30:48;2.93;;;1.97;;
6378;SDS011;3222;48.858;10.128;2022-09-03T04:33:14;1.87;;;1.77;;
6378;SDS011;3222;48.858;10.128;2022-09-03T04:35:39;1.70;;;1.60;;
6378;SDS011;3222;48.858;10.128;2022-09-03T04:38:06;1.83;;;1.73;;
6378;SDS011;3222;48.858;10.128;2022-09-03T04:40:32;1.60;;;1.50;;
6378;SDS011;3222;48.858;10.128;2022-09-03T04:42:58;1.27;;;1.27;;
6378;SDS011;3222;48.858;10.128;2022-09-03T04:45:25;1.67;;;1.57;;
6378;SDS011;3222;48.858;10.128;2022-09-03T04:48:02;3.10;;;1.50;;
6378;SDS011;3222;48.858;10.128;2022-09-03T04:50:29;1.60;;;1.50;;
6378;SDS011;3222;48.858;10.128;2022-09-03T04:53:00;1.70;;;1.60;;
6378;SDS011;3222;48.858;10.128;2022-09-03T04:55:27;2.43;;;1.40;;
6378;SDS011;3222;48.858;10.128;2022-09-03T04:57:57;2.63;;;1.57;;
6378;SDS011;3222;48.858;10.128;2022-09-03T05:00:23;1.93;;;1.40;;
6378;SDS011;3222;48.858;10.128;2022-09-03T05:02:49;1.70;;;1.60;;
6378;SDS011;3222;48.858;10.128;2022-09-03T05:05:16;1.30;;;1.30;;
6378;SDS011;3222;48.858;10.128;2022-09-03T05:07:42;1.57;;;1.47;;
6378;SDS011;3222;48.858;10.128;2022-09-03T05:10:09;2.17;;;1.50;;
6378;SDS011;3222;48.858;10.128;2022-09-03T05:12:46;1.50;;;1.40;;
6378;SDS011;3222;48.858;10.128;2022-09-03T05:15:14;1.40;;;1.30;;
6378;SDS011;3222;48.858;10.128;2022-09-03T05:17:40;1.43;;;1.40;;
6378;SDS011;3222;48.858;10.128;2022-09-03T05:20:05;1.60;;;1.50;;
6378;SDS011;3222;48.858;10.128;2022-09-03T05:22:33;1.90;;;1.70;;
6378;SDS011;3222;48.858;10.128;2022-09-03T05:24:59;1.50;;;1.40;;
6378;SDS011;3222;48.858;10.128;2022-09-03T05:27:24;1.30;;;1.30;;
6378;SDS011;3222;48.858;10.128;2022-09-03T05:29:50;1.73;;;1.63;;
6378;SDS011;3222;48.858;10.128;2022-09-03T05:32:16;1.37;;;1.37;;
6378;SDS011;3222;48.858;10.128;2022-09-03T05:34:44;1.30;;;1.30;;
6378;SDS011;3222;48.858;10.128;2022-09-03T05:37:10;1.50;;;1.40;;
6378;SDS011;3222;48.858;10.128;2022-09-03T05:39:36;1.77;;;1.67;;
6378;SDS011;3222;48.858;10.128;2022-09-03T05:42:03;3.57;;;1.63;;
6378;SDS011;3222;48.858;10.128;2022-09-03T05:44:29;1.60;;;1.50;;
6378;SDS011;3222;48.858;10.128;2022-09-03T05:46:55;1.60;;;1.50;;
6378;SDS011;3222;48.858;10.128;2022-09-03T05:49:21;1.60;;;1.47;;
6378;SDS011;3222;48.858;10.128;2022-09-03T05:51:47;1.60;;;1.60;;
6378;SDS011;3222;48.858;10.128;2022-09-03T05:54:12;2.00;;;1.60;;
6378;SDS011;3222;48.858;10.128;2022-09-03T05:56:38;1.53;;;1.43;;
6378;SDS011;3222;48.858;10.128;2022-09-03T05:59:06;1.63;;;1.53;;
6378;SDS011;3222;48.858;10.128;2022-09-03T06:01:34;1.63;;;1.53;;
6378;SDS011;3222;48.858;10.128;2022-09-03T06:06:33;2.03;;;1.93;;
6378;SDS011;3222;48.858;10.128;2022-09-03T06:09:01;2.67;;;1.80;;
6378;SDS011;3222;48.858;10.128;2022-09-03T06:11:29;2.17;;;2.00;;
6378;SDS011;3222;48.858;10.128;2022-09-03T06:13:57;2.00;;;1.90;;
6378;SDS011;3222;48.858;10.128;2022-09-03T06:16:27;2.17;;;1.80;;
6378;SDS011;3222;48.858;10.128;2022-09-03T06:18:54;2.90;;;1.63;;
6378;SDS011;3222;48.858;10.128;2022-09-03T06:21:26;1.60;;;1.50;;
6378;SDS011;3222;48.858;10.128;2022-09-03T06:23:53;3.07;;;1.80;;
6378;SDS011;3222;48.858;10.128;2022-09-03T06:26:21;1.90;;;1.80;;
6378;SDS011;3222;48.858;10.128;2022-09-03T06:28:47;2.30;;;1.80;;
6378;SDS011;3222;48.858;10.128;2022-09-03T06:31:14;6.43;;;2.10;;
6378;SDS011;3222;48.858;10.128;2022-09-03T06:33:42;2.47;;;1.97;;
6378;SDS011;3222;48.858;10.128;2022-09-03T06:36:09;2.20;;;2.10;;
6378;SDS011;3222;48.858;10.128;2022-09-03T06:38:40;2.50;;;1.97;;
6378;SDS011;3222;48.858;10.128;2022-09-03T06:41:07;2.30;;;1.80;;
6378;SDS011;3222;48.858;10.128;2022-09-03T06:43:38;1.90;;;1.80;;
6378;SDS011;3222;48.858;10.128;2022-09-03T06:46:10;3.83;;;1.80;;
6378;SDS011;3222;48.858;10.128;2022-09-03T06:48:39;1.90;;;1.80;;
6378;SDS011;3222;48.858;10.128;2022-09-03T06:51:07;2.33;;;1.80;;
6378;SDS011;3222;48.858;10.128;2022-09-03T06:53:35;2.43;;;1.73;;
6378;SDS011;3222;48.858;10.128;2022-09-03T06:56:03;1.70;;;1.60;;
6378;SDS011;3222;48.858;10.128;2022-09-03T06:58:32;1.90;;;1.80;;
6378;SDS011;3222;48.858;10.128;2022-09-03T07:01:04;1.73;;;1.63;;
6378;SDS011;3222;48.858;10.128;2022-09-03T07:03:32;2.20;;;1.60;;
6378;SDS011;3222;48.858;10.128;2022-09-03T07:06:19;2.33;;;1.77;;
6378;SDS011;3222;48.858;10.128;2022-09-03T07:08:45;2.00;;;1.80;;
6378;SDS011;3222;48.858;10.128;2022-09-03T07:11:12;1.80;;;1.70;;
6378;SDS011;3222;48.858;10.128;2022-09-03T07:13:43;1.87;;;1.77;;
6378;SDS011;3222;48.858;10.128;2022-09-03T07:16:11;2.17;;;2.00;;
6378;SDS011;3222;48.858;10.128;2022-09-03T07:18:40;2.10;;;1.97;;
6378;SDS011;3222;48.858;10.128;2022-09-03T07:21:09;3.80;;;2.17;;
6378;SDS011;3222;48.858;10.128;2022-09-03T07:23:39;1.73;;;1.63;;
6378;SDS011;3222;48.858;10.128;2022-09-03T07:26:09;1.80;;;1.70;;
6378;SDS011;3222;48.858;10.128;2022-09-03T07:28:38;4.63;;;1.67;;
6378;SDS011;3222;48.858;10.128;2022-09-03T07:33:39;2.00;;;1.70;;
6378;SDS011;3222;48.858;10.128;2022-09-03T07:36:06;2.00;;;1.90;;
6378;SDS011;3222;48.858;10.128;2022-09-03T07:38:34;2.30;;;2.00;;
6378;SDS011;3222;48.858;10.128;2022-09-03T07:41:01;2.83;;;2.20;;
6378;SDS011;3222;48.858;10.128;2022-09-03T07:43:32;1.93;;;1.83;;
6378;SDS011;3222;48.858;10.128;2022-09-03T07:46:02;3.20;;;2.00;;
6378;SDS011;3222;48.858;10.128;2022-09-03T07:48:31;2.47;;;2.27;;
6378;SDS011;3222;48.858;10.128;2022-09-03T07:50:57;3.63;;;2.20;;
6378;SDS011;3222;48.858;10.128;2022-09-03T07:53:25;2.63;;;2.43;;
6378;SDS011;3222;48.858;10.128;2022-09-03T07:55:53;2.93;;;2.70;;
6378;SDS011;3222;48.858;10.128;2022-09-03T07:58:27;2.50;;;2.30;;
6378;SDS011;3222;48.858;10.128;2022-09-03T08:00:53;3.13;;;2.67;;
6378;SDS011;3222;48.858;10.128;2022-09-03T08:03:21;4.07;;;2.93;;
6378;SDS011;3222;48.858;10.128;2022-09-03T08:05:46;2.83;;;2.63;;
6378;SDS011;3222;48.858;10.128;2022-09-03T08:08:12;4.67;;;2.70;;
6378;SDS011;3222;48.858;10.128;2022-09-03T08:10:39;3.10;;;2.90;;
6378;SDS011;3222;48.858;10.128;2022-09-03T08:13:05;2.97;;;2.77;;
6378;SDS011;3222;48.858;10.128;2022-09-03T08:15:31;2.67;;;2.47;;
6378;SDS011;3222;48.858;10.128;2022-09-03T08:17:58;2.57;;;2.37;;
6378;SDS011;3222;48.858;10.128;2022-09-03T08:20:25;3.80;;;2.77;;
6378;SDS011;3222;48.858;10.128;2022-09-03T08:22:51;2.67;;;2.43;;
6378;SDS011;3222;48.858;10.128;2022-09-03T08:25:17;2.73;;;2.53;;
6378;SDS011;3222;48.858;10.128;2022-09-03T08:27:43;2.50;;;2.33;;
6378;SDS011;3222;48.858;10.128;2022-09-03T08:30:09;2.60;;;2.40;;
6378;SDS011;3222;48.858;10.128;2022-09-03T08:32:38;3.23;;;2.53;;
6378;SDS011;3222;48.858;10.128;2022-09-03T08:35:05;2.43;;;2.33;;
6378;SDS011;3222;48.858;10.128;2022-09-03T08:37:33;2.37;;;2.23;;
6378;SDS011;3222;48.858;10.128;2022-09-03T08:39:59;2.50;;;2.30;;
6378;SDS011;3222;48.858;10.128;2022-09-03T08:45:00;2.53;;;2.20;;
6378;SDS011;3222;48.858;10.128;2022-09-03T08:47:36;2.93;;;2.27;;
6378;SDS011;3222;48.858;10.128;2022-09-03T08:53:05;2.30;;;2.10;;
6378;SDS011;3222;48.858;10.128;2022-09-03T08:55:40;2.33;;;1.80;;
6378;SDS011;3222;48.858;10.128;2022-09-03T08:58:27;2.77;;;2.00;;
6378;SDS011;3222;48.858;10.128;2022-09-03T09:01:02;2.43;;;2.23;;
6378;SDS011;3222;48.858;10.128;2022-09-03T09:09:43;5.87;;;2.10;;
6378;SDS011;3222;48.858;10.128;2022-09-03T09:15:05;2.47;;;1.87;;
6378;SDS011;3222;48.858;10.128;2022-09-03T09:17:59;2.10;;;1.90;;
6378;SDS011;3222;48.858;10.128;2022-09-03T09:25:53;3.13;;;2.07;;
6378;SDS011;3222;48.858;10.128;2022-09-03T09:28:22;1.93;;;1.83;;
6378;SDS011;3222;48.858;10.128;2022-09-03T09:30:52;3.53;;;2.10;;
6378;SDS011;3222;48.858;10.128;2022-09-03T09:33:19;2.10;;;2.00;;
6378;SDS011;3222;48.858;10.128;2022-09-03T09:35:46;2.50;;;2.10;;
6378;SDS011;3222;48.858;10.128;2022-09-03T09:38:12;5.20;;;2.10;;
6378;SDS011;3222;48.858;10.128;2022-09-03T09:40:42;1.97;;;1.87;;
6378;SDS011;3222;48.858;10.128;2022-09-03T09:43:16;3.23;;;2.17;;
6378;SDS011;3222;48.858;10.128;2022-09-03T09:45:46;3.83;;;2.20;;
6378;SDS011;3222;48.858;10.128;2022-09-03T09:48:19;2.30;;;2.10;;
6378;SDS011;3222;48.858;10.128;2022-09-03T09:51:02;2.67;;;1.93;;
6378;SDS011;3222;48.858;10.128;2022-09-03T09:53:34;3.07;;;2.00;;
6378;SDS011;3222;48.858;10.128;2022-09-03T09:56:00;2.40;;;1.90;;
6378;SDS011;3222;48.858;10.128;2022-09-03T09:58:29;2.40;;;2.20;;
6378;SDS011;3222;48.858;10.128;2022-09-03T10:01:40;1.93;;;1.83;;
6378;SDS011;3222;48.858;10.128;2022-09-03T10:03:51;2.40;;;1.73;;
6378;SDS011;3222;48.858;10.128;2022-09-03T10:06:21;2.07;;;1.83;;
6378;SDS011;3222;48.858;10.128;2022-09-03T10:09:08;3.10;;;2.00;;
6378;SDS011;3222;48.858;10.128;2022-09-03T10:11:40;1.87;;;1.77;;
6378;SDS011;3222;48.858;10.128;2022-09-03T10:14:11;1.97;;;1.87;;
6378;SDS011;3222;48.858;10.128;2022-09-03T10:16:56;2.07;;;1.97;;
6378;SDS011;3222;48.858;10.128;2022-09-03T10:22:53;3.03;;;1.93;;
6378;SDS011;3222;48.858;10.128;2022-09-03T10:28:32;2.00;;;1.90;;
6378;SDS011;3222;48.858;10.128;2022-09-03T10:37:14;2.10;;;2.00;;
6378;SDS011;3222;48.858;10.128;2022-09-03T10:50:45;1.73;;;1.60;;
6378;SDS011;3222;48.858;10.128;2022-09-03T10:53:29;2.33;;;1.83;;
6378;SDS011;3222;48.858;10.128;2022-09-03T10:58:42;4.70;;;1.97;;
6378;SDS011;3222;48.858;10.128;2022-09-03T11:06:52;2.23;;;2.00;;
6378;SDS011;3222;48.858;10.128;2022-09-03T11:12:03;1.83;;;1.70;;
6378;SDS011;3222;48.858;10.128;2022-09-03T11:14:35;2.87;;;1.63;;
6378;SDS011;3222;48.858;10.128;2022-09-03T11:17:14;1.70;;;1.60;;
6378;SDS011;3222;48.858;10.128;2022-09-03T11:19:48;2.93;;;1.77;;
6378;SDS011;3222;48.858;10.128;2022-09-03T11:22:17;2.00;;;1.90;;
6378;SDS011;3222;48.858;10.128;2022-09-03T11:24:45;1.73;;;1.63;;
6378;SDS011;3222;48.858;10.128;2022-09-03T11:27:25;2.10;;;1.90;;
6378;SDS011;3222;48.858;10.128;2022-09-03T11:30:04;1.70;;;1.60;;
6378;SDS011;3222;48.858;10.128;2022-09-03T11:32:44;1.60;;;1.50;;
6378;SDS011;3222;48.858;10.128;2022-09-03T11:37:59;2.13;;;1.93;;
6378;SDS011;3222;48.858;10.128;2022-09-03T11:40:42;1.90;;;1.70;;
6378;SDS011;3222;48.858;10.128;2022-09-03T11:43:36;1.73;;;1.63;;
6378;SDS011;3222;48.858;10.128;2022-09-03T11:48:48;1.57;;;1.47;;
6378;SDS011;3222;48.858;10.128;2022-09-03T11:53:58;1.50;;;1.40;;
6378;SDS011;3222;48.858;10.128;2022-09-03T11:56:26;2.07;;;1.57;;
6378;SDS011;3222;48.858;10.128;2022-09-03T11:59:03;1.57;;;1.50;;
6378;SDS011;3222;48.858;10.128;2022-09-03T12:01:55;1.30;;;1.20;;
6378;SDS011;3222;48.858;10.128;2022-09-03T12:04:31;1.70;;;1.60;;
6378;SDS011;3222;48.858;10.128;2022-09-03T12:10:14;2.10;;;1.60;;
6378;SDS011;3222;48.858;10.128;2022-09-03T12:18:30;3.07;;;1.60;;
6378;SDS011;3222;48.858;10.128;2022-09-03T12:23:29;1.70;;;1.60;;
6378;SDS011;3222;48.858;10.128;2022-09-03T12:26:04;1.63;;;1.43;;
6378;SDS011;3222;48.858;10.128;2022-09-03T12:28:36;1.50;;;1.40;;
6378;SDS011;3222;48.858;10.128;2022-09-03T12:31:07;1.43;;;1.33;;
6378;SDS011;3222;48.858;10.128;2022-09-03T12:33:44;1.63;;;1.50;;
6378;SDS011;3222;48.858;10.128;2022-09-03T12:36:12;1.50;;;1.40;;
6378;SDS011;3222;48.858;10.128;2022-09-03T12:38:38;1.90;;;1.60;;
6378;SDS011;3222;48.858;10.128;2022-09-03T12:41:04;1.83;;;1.73;;
6378;SDS011;3222;48.858;10.128;2022-09-03T12:43:30;1.60;;;1.50;;
6378;SDS011;3222;48.858;10.128;2022-09-03T12:45:55;1.50;;;1.40;;
6378;SDS011;3222;48.858;10.128;2022-09-03T12:48:21;1.53;;;1.43;;
6378;SDS011;3222;48.858;10.128;2022-09-03T12:50:48;1.87;;;1.73;;
6378;SDS011;3222;48.858;10.128;2022-09-03T12:53:24;2.97;;;1.60;;
6378;SDS011;3222;48.858;10.128;2022-09-03T12:55:54;1.40;;;1.40;;
6378;SDS011;3222;48.858;10.128;2022-09-03T13:00:51;1.67;;;1.57;;
6378;SDS011;3222;48.858;10.128;2022-09-03T13:03:40;1.60;;;1.50;;
6378;SDS011;3222;48.858;10.128;2022-09-03T13:06:12;2.07;;;1.60;;
6378;SDS011;3222;48.858;10.128;2022-09-03T13:11:34;4.33;;;2.07;;
6378;SDS011;3222;48.858;10.128;2022-09-03T13:14:07;2.87;;;2.10;;
6378;SDS011;3222;48.858;10.128;2022-09-03T13:27:51;1.63;;;0.90;;
6378;SDS011;3222;48.858;10.128;2022-09-03T13:30:19;2.40;;;0.70;;
6378;SDS011;3222;48.858;10.128;2022-09-03T13:35:31;1.23;;;0.73;;
6378;SDS011;3222;48.858;10.128;2022-09-03T13:41:08;2.73;;;0.80;;
6378;SDS011;3222;48.858;10.128;2022-09-03T13:43:51;1.53;;;0.90;;
6378;SDS011;3222;48.858;10.128;2022-09-03T13:46:47;2.33;;;0.90;;
6378;SDS011;3222;48.858;10.128;2022-09-03T13:52:53;1.27;;;0.80;;
6378;SDS011;3222;48.858;10.128;2022-09-03T13:55:45;1.40;;;0.80;;
6378;SDS011;3222;48.858;10.128;2022-09-03T14:00:53;0.77;;;0.70;;
6378;SDS011;3222;48.858;10.128;2022-09-03T14:08:41;1.50;;;0.83;;
6378;SDS011;3222;48.858;10.128;2022-09-03T14:11:49;2.00;;;0.60;;
6378;SDS011;3222;48.858;10.128;2022-09-03T14:20:39;0.63;;;0.60;;
6378;SDS011;3222;48.858;10.128;2022-09-03T14:26:15;1.90;;;1.00;;
6378;SDS011;3222;48.858;10.128;2022-09-03T14:29:49;2.50;;;0.83;;
6378;SDS011;3222;48.858;10.128;2022-09-03T14:31:55;0.87;;;0.70;;
6378;SDS011;3222;48.858;10.128;2022-09-03T14:42:57;1.03;;;0.70;;
6378;SDS011;3222;48.858;10.128;2022-09-03T14:48:54;1.90;;;0.80;;
6378;SDS011;3222;48.858;10.128;2022-09-03T15:02:26;1.37;;;0.83;;
6378;SDS011;3222;48.858;10.128;2022-09-03T15:05:03;0.90;;;0.90;;
6378;SDS011;3222;48.858;10.128;2022-09-03T15:08:07;0.70;;;0.70;;
6378;SDS011;3222;48.858;10.128;2022-09-03T15:10:49;0.90;;;0.90;;
6378;SDS011;3222;48.858;10.128;2022-09-03T15:13:23;0.90;;;0.90;;
6378;SDS011;3222;48.858;10.128;2022-09-03T15:16:10;1.07;;;0.80;;
6378;SDS011;3222;48.858;10.128;2022-09-03T15:35:35;1.00;;;1.00;;
6378;SDS011;3222;48.858;10.128;2022-09-03T15:38:11;1.17;;;1.10;;
6378;SDS011;3222;48.858;10.128;2022-09-03T15:43:17;1.57;;;1.00;;
6378;SDS011;3222;48.858;10.128;2022-09-03T15:48:16;1.30;;;1.20;;
6378;SDS011;3222;48.858;10.128;2022-09-03T15:50:52;1.20;;;1.10;;
6378;SDS011;3222;48.858;10.128;2022-09-03T15:56:40;0.90;;;0.90;;
6378;SDS011;3222;48.858;10.128;2022-09-03T15:59:30;0.90;;;0.90;;
6378;SDS011;3222;48.858;10.128;2022-09-03T16:02:26;1.00;;;1.00;;
6378;SDS011;3222;48.858;10.128;2022-09-03T16:12:51;2.03;;;1.00;;
6378;SDS011;3222;48.858;10.128;2022-09-03T16:15:26;0.90;;;0.90;;
6378;SDS011;3222;48.858;10.128;2022-09-03T16:26:26;1.10;;;1.00;;
6378;SDS011;3222;48.858;10.128;2022-09-03T16:29:10;0.70;;;0.70;;
6378;SDS011;3222;48.858;10.128;2022-09-03T16:40:21;1.60;;;0.90;;
6378;SDS011;3222;48.858;10.128;2022-09-03T16:43:25;0.70;;;0.70;;
6378;SDS011;3222;48.858;10.128;2022-09-03T16:48:53;2.23;;;1.30;;
6378;SDS011;3222;48.858;10.128;2022-09-03T16:59:02;0.87;;;0.80;;
6378;SDS011;3222;48.858;10.128;2022-09-03T17:07:07;0.80;;;0.80;;
6378;SDS011;3222;48.858;10.128;2022-09-03T17:09:46;1.00;;;0.70;;
6378;SDS011;3222;48.858;10.128;2022-09-03T17:15:39;0.60;;;0.60;;
6378;SDS011;3222;48.858;10.128;2022-09-03T17:32:33;2.30;;;0.80;;
6378;SDS011;3222;48.858;10.128;2022-09-03T17:35:46;0.83;;;0.83;;
6378;SDS011;3222;48.858;10.128;2022-09-03T17:52:35;1.00;;;1.00;;
6378;SDS011;3222;48.858;10.128;2022-09-03T18:00:57;3.57;;;1.20;;
6378;SDS011;3222;48.858;10.128;2022-09-03T18:11:38;0.93;;;0.70;;
6378;SDS011;3222;48.858;10.128;2022-09-03T18:20:08;0.70;;;0.70;;
6378;SDS011;3222;48.858;10.128;2022-09-03T18:26:21;0.80;;;0.80;;
6378;SDS011;3222;48.858;10.128;2022-09-03T18:29:13;1.83;;;0.70;;
6378;SDS011;3222;48.858;10.128;2022-09-03T18:32:05;0.70;;;0.70;;
6378;SDS011;3222;48.858;10.128;2022-09-03T18:34:49;0.70;;;0.70;;
6378;SDS011;3222;48.858;10.128;2022-09-03T18:37:33;2.00;;;0.50;;
6378;SDS011;3222;48.858;10.128;2022-09-03T18:40:24;0.70;;;0.70;;
6378;SDS011;3222;48.858;10.128;2022-09-03T18:43:16;0.63;;;0.63;;
6378;SDS011;3222;48.858;10.128;2022-09-03T18:46:14;0.90;;;0.90;;
6378;SDS011;3222;48.858;10.128;2022-09-03T18:49:19;1.10;;;1.00;;
6378;SDS011;3222;48.858;10.128;2022-09-03T19:01:09;1.37;;;0.67;;
6378;SDS011;3222;48.858;10.128;2022-09-03T19:07:02;0.83;;;0.83;;
6378;SDS011;3222;48.858;10.128;2022-09-03T19:16:36;0.90;;;0.90;;
6378;SDS011;3222;48.858;10.128;2022-09-03T19:22:35;0.70;;;0.70;;
6378;SDS011;3222;48.858;10.128;2022-09-03T19:25:21;1.13;;;0.80;;
6378;SDS011;3222;48.858;10.128;2022-09-03T19:37:16;2.40;;;0.80;;
6378;SDS011;3222;48.858;10.128;2022-09-03T19:40:45;0.77;;;0.77;;
6378;SDS011;3222;48.858;10.128;2022-09-03T19:44:03;3.90;;;0.90;;
6378;SDS011;3222;48.858;10.128;2022-09-03T19:46:55;0.77;;;0.77;;
6378;SDS011;3222;48.858;10.128;2022-09-03T19:52:48;0.97;;;0.67;;
6378;SDS011;3222;48.858;10.128;2022-09-03T19:55:46;0.73;;;0.73;;
6378;SDS011;3222;48.858;10.128;2022-09-03T19:58:35;1.80;;;1.07;;
6378;SDS011;3222;48.858;10.128;2022-09-03T20:01:24;0.80;;;0.80;;
6378;SDS011;3222;48.858;10.128;2022-09-03T20:04:15;6.03;;;0.87;;
6378;SDS011;3222;48.858;10.128;2022-09-03T20:07:02;1.23;;;0.70;;
6378;SDS011;3222;48.858;10.128;2022-09-03T20:09:48;0.70;;;0.70;;
6378;SDS011;3222;48.858;10.128;2022-09-03T20:12:37;0.73;;;0.73;;
6378;SDS011;3222;48.858;10.128;2022-09-03T20:15:07;1.13;;;0.87;;
6378;SDS011;3222;48.858;10.128;2022-09-03T20:20:33;1.43;;;1.30;;
6378;SDS011;3222;48.858;10.128;2022-09-03T20:23:29;1.00;;;1.00;;
6378;SDS011;3222;48.858;10.128;2022-09-03T20:26:09;1.90;;;0.90;;
6378;SDS011;3222;48.858;10.128;2022-09-03T20:37:14;1.20;;;1.10;;
6378;SDS011;3222;48.858;10.128;2022-09-03T20:43:09;1.17;;;1.10;;
6378;SDS011;3222;48.858;10.128;2022-09-03T20:48:57;0.93;;;0.93;;
6378;SDS011;3222;48.858;10.128;2022-09-03T21:06:01;4.03;;;2.50;;
6378;SDS011;3222;48.858;10.128;2022-09-03T21:11:13;1.70;;;1.60;;
6378;SDS011;3222;48.858;10.128;2022-09-03T21:17:03;0.83;;;0.80;;
6378;SDS011;3222;48.858;10.128;2022-09-03T21:25:11;0.70;;;0.70;;
6378;SDS011;3222;48.858;10.128;2022-09-03T21:27:44;1.00;;;1.00;;
6378;SDS011;3222;48.858;10.128;2022-09-03T21:30:17;0.90;;;0.90;;
6378;SDS011;3222;48.858;10.128;2022-09-03T21:35:29;0.73;;;0.73;;
6378;SDS011;3222;48.858;10.128;2022-09-03T21:38:08;0.73;;;0.73;;
6378;SDS011;3222;48.858;10.128;2022-09-03T21:40:56;0.90;;;0.90;;
6378;SDS011;3222;48.858;10.128;2022-09-03T21:43:34;2.00;;;0.77;;
6378;SDS011;3222;48.858;10.128;2022-09-03T21:46:17;1.60;;;0.87;;
6378;SDS011;3222;48.858;10.128;2022-09-03T21:48:58;0.83;;;0.83;;
6378;SDS011;3222;48.858;10.128;2022-09-03T21:51:30;0.70;;;0.70;;
6378;SDS011;3222;48.858;10.128;2022-09-03T21:59:47;0.90;;;0.90;;
6378;SDS011;3222;48.858;10.128;2022-09-03T22:04:52;0.90;;;0.90;;
6378;SDS011;3222;48.858;10.128;2022-09-03T22:07:25;0.90;;;0.90;;
6378;SDS011;3222;48.858;10.128;2022-09-03T22:15:33;0.80;;;0.80;;
6378;SDS011;3222;48.858;10.128;2022-09-03T22:18:09;1.27;;;1.17;;
6378;SDS011;3222;48.858;10.128;2022-09-03T22:20:45;1.10;;;1.00;;
6378;SDS011;3222;48.858;10.128;2022-09-03T22:23:24;2.83;;;1.10;;